Time;durP1;ratioP1;P1;durP2;ratioP2;P2;SDS_P1;SDS_P2;PMS_P1;PMS_P2;Temp;Humidity;BMP_temperature;BMP_pressure;BME280_temperature;BME280_humidity;BME280_pressure;Samples;Min_cycle;Max_cycle;Signal;HPM_P1;HPM_P2
2022/03/31 00:01:27;;;;;;;28.40;15.82;;;12.20;50.10;;;;;;5040905;28;20057;-42
2022/03/31 00:03:54;;;;;;;28.52;16.65;;;12.20;50.10;;;;;;5036356;28;20048;-43
2022/03/31 00:06:22;;;;;;;29.65;16.80;;;12.20;50.00;;;;;;5041181;28;20049;-49
2022/03/31 00:08:49;;;;;;;28.60;18.00;;;12.20;50.00;;;;;;5040584;28;20075;-44
2022/03/31 00:11:18;;;;;;;27.08;16.05;;;12.10;50.10;;;;;;5037683;28;20520;-44
2022/03/31 00:13:47;;;;;;;27.05;16.10;;;12.10;50.10;;;;;;5039771;28;20068;-45
2022/03/31 00:16:14;;;;;;;29.13;17.30;;;12.10;50.20;;;;;;5041058;28;20048;-44
2022/03/31 00:18:42;;;;;;;29.98;18.77;;;12.10;50.30;;;;;;5041218;28;20061;-45
2022/03/31 00:21:09;;;;;;;31.13;18.08;;;12.10;50.40;;;;;;5042239;28;20718;-43
2022/03/31 00:23:37;;;;;;;27.35;17.42;;;12.10;50.50;;;;;;5039505;28;20574;-44
2022/03/31 00:26:05;;;;;;;30.95;17.85;;;12.10;50.80;;;;;;5036901;28;20048;-43
2022/03/31 00:28:33;;;;;;;33.05;17.77;;;12.10;50.60;;;;;;5040550;28;20057;-47
2022/03/31 00:31:02;;;;;;;32.15;18.38;;;12.10;50.70;;;;;;5040329;28;20057;-43
2022/03/31 00:33:29;;;;;;;37.63;19.33;;;12.10;50.90;;;;;;5038772;28;20049;-43
2022/03/31 00:35:57;;;;;;;28.00;17.17;;;12.10;51.00;;;;;;5039211;28;20519;-44
2022/03/31 00:38:25;;;;;;;27.08;16.23;;;12.00;51.10;;;;;;5041622;28;20057;-43
2022/03/31 00:40:53;;;;;;;31.77;17.00;;;12.00;51.00;;;;;;5040960;28;20416;-43
2022/03/31 00:43:21;;;;;;;33.40;19.00;;;12.00;51.10;;;;;;5038596;28;20404;-44
2022/03/31 00:45:50;;;;;;;32.97;18.48;;;12.00;51.20;;;;;;5039052;28;20049;-43
2022/03/31 00:48:20;;;;;;;27.67;16.90;;;12.00;51.20;;;;;;5035595;28;20064;-43
2022/03/31 00:50:48;;;;;;;32.15;18.67;;;11.90;51.20;;;;;;5041147;28;20523;-43
2022/03/31 00:53:16;;;;;;;33.80;18.55;;;11.90;51.40;;;;;;5038077;28;20049;-47
2022/03/31 00:55:46;;;;;;;38.30;21.00;;;11.90;51.30;;;;;;5037468;28;20049;-44
2022/03/31 00:58:15;;;;;;;41.33;19.25;;;11.90;51.50;;;;;;5040508;28;20500;-43
2022/03/31 01:00:42;;;;;;;37.42;20.77;;;11.90;51.50;;;;;;5040464;28;20064;-47
2022/03/31 01:03:10;;;;;;;34.95;18.70;;;11.80;51.60;;;;;;5038955;28;23361;-43
2022/03/31 01:05:40;;;;;;;34.97;18.83;;;11.80;51.60;;;;;;5039393;28;20052;-48
2022/03/31 01:08:08;;;;;;;40.17;20.55;;;11.70;51.60;;;;;;5022374;28;20057;-45
2022/03/31 01:10:35;;;;;;;34.80;20.00;;;11.70;51.70;;;;;;5041899;28;20049;-44
2022/03/31 01:13:06;;;;;;;34.95;20.08;;;11.60;51.90;;;;;;5043519;28;20060;-44
2022/03/31 01:15:33;;;;;;;37.50;21.25;;;11.60;52.40;;;;;;5042306;28;20630;-43
2022/03/31 01:18:01;;;;;;;32.47;18.75;;;11.60;52.50;;;;;;5043663;28;20083;-44
2022/03/31 01:20:28;;;;;;;37.58;18.80;;;11.60;52.50;;;;;;5043828;28;20060;-43
2022/03/31 01:22:58;;;;;;;34.42;19.67;;;11.60;52.50;;;;;;5043171;28;20053;-43
2022/03/31 01:25:27;;;;;;;29.45;17.90;;;11.60;52.70;;;;;;5039631;28;20049;-43
2022/03/31 01:27:55;;;;;;;32.03;17.55;;;11.50;52.60;;;;;;5043081;28;20057;-43
2022/03/31 01:30:24;;;;;;;39.72;21.48;;;11.50;52.50;;;;;;5026128;28;20053;-43
2022/03/31 01:32:52;;;;;;;37.67;19.88;;;11.50;52.60;;;;;;5043428;28;20057;-44
2022/03/31 01:35:20;;;;;;;34.95;18.35;;;11.60;52.90;;;;;;5037840;28;20060;-43
2022/03/31 01:37:48;;;;;;;32.35;17.35;;;11.50;52.80;;;;;;5037774;28;20057;-44
2022/03/31 01:40:16;;;;;;;27.33;16.17;;;11.50;52.70;;;;;;5041588;28;20075;-43
2022/03/31 01:42:47;;;;;;;26.48;16.65;;;11.50;52.70;;;;;;5042958;28;20049;-44
2022/03/31 01:45:17;;;;;;;29.55;17.52;;;11.50;52.80;;;;;;5041168;28;20052;-43
2022/03/31 01:47:45;;;;;;;30.95;17.60;;;11.50;52.80;;;;;;5042961;28;20119;-44
2022/03/31 01:50:13;;;;;;;28.20;16.92;;;11.50;52.80;;;;;;5043544;28;20063;-44
2022/03/31 01:52:41;;;;;;;29.40;17.38;;;11.50;52.80;;;;;;5044376;28;20062;-44
2022/03/31 01:55:09;;;;;;;27.38;17.33;;;11.50;52.80;;;;;;5040484;28;20053;-44
2022/03/31 01:57:37;;;;;;;34.35;18.02;;;11.50;52.70;;;;;;5043780;28;20057;-43
2022/03/31 02:00:09;;;;;;;30.88;16.90;;;11.50;52.50;;;;;;5043220;28;20500;-44
2022/03/31 02:02:36;;;;;;;26.17;15.30;;;11.50;52.50;;;;;;5044071;28;20052;-44
2022/03/31 02:05:04;;;;;;;27.63;16.73;;;11.50;52.50;;;;;;5039856;28;20443;-43
2022/03/31 02:07:32;;;;;;;26.77;16.38;;;11.40;52.40;;;;;;5043343;28;20064;-43
2022/03/31 02:09:59;;;;;;;28.92;16.75;;;11.50;52.40;;;;;;5038492;28;20056;-47
2022/03/31 02:12:27;;;;;;;37.13;19.38;;;11.40;52.40;;;;;;5044052;28;20052;-43
2022/03/31 02:14:55;;;;;;;29.02;16.75;;;11.40;52.60;;;;;;5042432;28;20489;-43
2022/03/31 02:17:23;;;;;;;29.73;17.15;;;11.40;52.60;;;;;;5042289;28;20049;-43
2022/03/31 02:19:51;;;;;;;30.77;17.95;;;11.40;52.70;;;;;;5042202;28;20060;-44
2022/03/31 02:22:18;;;;;;;27.33;16.58;;;11.40;52.70;;;;;;5043089;28;20057;-44
2022/03/31 02:24:46;;;;;;;32.90;17.52;;;11.40;52.80;;;;;;5039294;28;20056;-43
2022/03/31 02:27:13;;;;;;;26.65;15.75;;;11.40;52.70;;;;;;5043274;28;20052;-43
2022/03/31 02:29:41;;;;;;;23.52;14.60;;;11.40;52.70;;;;;;5042285;28;20049;-43
2022/03/31 02:32:09;;;;;;;27.45;15.73;;;11.40;52.60;;;;;;5043487;28;20057;-43
2022/03/31 02:34:38;;;;;;;27.88;15.10;;;11.40;52.50;;;;;;5039635;28;20435;-44
2022/03/31 02:37:06;;;;;;;27.48;15.20;;;11.40;52.30;;;;;;5042608;28;20057;-43
2022/03/31 02:39:33;;;;;;;30.27;14.88;;;11.40;52.20;;;;;;5041772;28;20489;-43
2022/03/31 02:42:01;;;;;;;25.60;14.40;;;11.40;52.20;;;;;;5043671;28;20057;-43
2022/03/31 02:44:29;;;;;;;27.00;15.02;;;11.40;52.10;;;;;;5038608;28;20515;-44
2022/03/31 02:46:56;;;;;;;26.48;15.57;;;11.40;52.10;;;;;;5042709;28;20061;-43
2022/03/31 02:49:24;;;;;;;24.75;15.25;;;11.40;52.00;;;;;;5039974;28;20535;-44
2022/03/31 02:51:53;;;;;;;23.33;15.23;;;11.30;51.90;;;;;;5043263;28;20083;-43
2022/03/31 02:57:05;;;;;;;24.45;14.55;;;11.30;51.80;;;;;;5048713;28;20525;-44
2022/03/31 02:59:33;;;;;;;26.70;14.25;;;11.30;51.80;;;;;;5041339;28;20057;-43
2022/03/31 03:02:00;;;;;;;25.52;15.70;;;11.30;51.80;;;;;;5042242;28;20048;-43
2022/03/31 03:04:28;;;;;;;24.67;15.23;;;11.30;51.90;;;;;;5038816;28;20057;-43
2022/03/31 03:06:57;;;;;;;25.00;15.68;;;11.20;51.80;;;;;;5041305;28;20057;-43
2022/03/31 03:09:24;;;;;;;28.67;16.48;;;11.20;51.80;;;;;;5039883;28;20052;-44
2022/03/31 03:11:52;;;;;;;26.02;15.20;;;11.20;51.80;;;;;;5041475;28;20053;-44
2022/03/31 03:14:19;;;;;;;24.42;15.77;;;11.20;51.80;;;;;;5040821;28;20049;-44
2022/03/31 03:16:47;;;;;;;31.27;16.05;;;11.20;51.90;;;;;;5041138;28;20064;-44
2022/03/31 03:19:14;;;;;;;23.48;14.38;;;11.10;51.90;;;;;;5041607;28;20053;-45
2022/03/31 03:21:42;;;;;;;30.40;16.25;;;11.10;52.00;;;;;;5039036;28;20077;-49
2022/03/31 03:24:11;;;;;;;28.33;14.88;;;11.10;52.10;;;;;;5037340;28;20057;-45
2022/03/31 03:26:38;;;;;;;26.83;15.00;;;11.10;52.80;;;;;;5039444;28;20057;-43
2022/03/31 03:29:06;;;;;;;26.55;15.43;;;11.10;52.30;;;;;;5041868;28;20061;-43
2022/03/31 03:31:33;;;;;;;27.73;17.08;;;11.10;52.40;;;;;;5042117;28;20061;-43
2022/03/31 03:34:01;;;;;;;29.63;15.40;;;11.10;52.50;;;;;;5040446;28;20060;-43
2022/03/31 03:36:28;;;;;;;26.63;14.63;;;11.10;52.50;;;;;;5040768;28;20076;-43
2022/03/31 03:38:56;;;;;;;25.30;15.20;;;11.00;52.50;;;;;;5041159;28;20056;-44
2022/03/31 03:41:25;;;;;;;25.80;14.52;;;11.00;52.50;;;;;;5041390;28;20056;-43
2022/03/31 03:43:52;;;;;;;25.35;16.05;;;11.00;52.60;;;;;;5038223;28;20107;-44
2022/03/31 03:46:20;;;;;;;25.48;14.85;;;11.00;52.60;;;;;;5040426;28;20515;-46
2022/03/31 03:48:47;;;;;;;24.83;15.32;;;11.00;52.60;;;;;;5042236;28;20523;-44
2022/03/31 03:51:15;;;;;;;26.17;14.70;;;11.00;52.50;;;;;;5040216;28;20045;-44
2022/03/31 03:53:42;;;;;;;23.52;15.02;;;11.00;52.50;;;;;;5035555;28;20704;-44
2022/03/31 03:56:10;;;;;;;26.65;15.15;;;11.00;52.50;;;;;;5040602;28;20049;-43
2022/03/31 03:58:39;;;;;;;31.40;17.35;;;10.90;52.40;;;;;;5040900;28;20060;-44
2022/03/31 04:01:06;;;;;;;30.67;15.57;;;10.90;52.40;;;;;;5040498;28;20048;-44
2022/03/31 04:03:34;;;;;;;26.58;14.70;;;10.90;52.30;;;;;;5037889;28;20060;-44
2022/03/31 04:06:01;;;;;;;30.40;16.10;;;10.90;52.20;;;;;;5040103;28;20041;-46
2022/03/31 04:08:29;;;;;;;23.02;14.38;;;10.90;52.20;;;;;;5037736;28;20053;-45
2022/03/31 04:10:56;;;;;;;24.85;13.98;;;10.90;52.20;;;;;;5038630;28;20064;-44
2022/03/31 04:13:24;;;;;;;22.85;14.00;;;10.90;52.20;;;;;;5039564;28;20056;-44
2022/03/31 04:15:53;;;;;;;25.55;14.88;;;10.80;52.30;;;;;;5031670;28;20622;-44
2022/03/31 04:18:20;;;;;;;24.40;14.52;;;10.80;52.30;;;;;;5037288;28;20465;-43
2022/03/31 04:20:48;;;;;;;28.80;15.73;;;10.80;52.20;;;;;;5040749;28;20053;-43
2022/03/31 04:23:15;;;;;;;23.98;14.38;;;10.80;52.20;;;;;;5038405;28;20064;-43
2022/03/31 04:25:42;;;;;;;26.88;14.35;;;10.80;52.10;;;;;;5037888;28;20064;-43
2022/03/31 04:28:10;;;;;;;23.00;13.93;;;10.80;52.40;;;;;;5038665;28;20401;-43
2022/03/31 04:30:37;;;;;;;26.02;14.25;;;10.80;52.20;;;;;;5040191;28;20064;-45
2022/03/31 04:33:06;;;;;;;22.02;13.38;;;10.70;52.20;;;;;;5039924;28;20064;-44
2022/03/31 04:35:36;;;;;;;24.63;14.95;;;10.70;52.20;;;;;;5037793;28;20500;-43
2022/03/31 04:38:04;;;;;;;22.65;13.57;;;10.70;52.20;;;;;;5040053;28;20535;-44
2022/03/31 04:40:32;;;;;;;22.10;13.88;;;10.70;52.20;;;;;;5041775;28;20060;-43
2022/03/31 04:42:59;;;;;;;24.17;14.80;;;10.70;52.20;;;;;;5039083;28;20048;-45
2022/03/31 04:45:27;;;;;;;22.60;13.82;;;10.70;52.20;;;;;;5042327;28;20526;-44
2022/03/31 04:47:54;;;;;;;26.55;15.02;;;10.70;52.20;;;;;;5045103;28;20048;-43
2022/03/31 04:50:23;;;;;;;23.67;13.68;;;10.60;52.10;;;;;;5042278;28;20428;-44
2022/03/31 04:52:51;;;;;;;29.17;14.85;;;10.60;52.10;;;;;;5044282;28;20052;-48
2022/03/31 04:55:18;;;;;;;25.50;14.57;;;10.60;52.10;;;;;;5041195;28;20056;-47
2022/03/31 04:57:46;;;;;;;24.70;13.73;;;10.60;52.20;;;;;;5044048;28;20057;-44
2022/03/31 05:00:14;;;;;;;22.98;14.30;;;10.60;52.20;;;;;;5041663;28;20053;-44
2022/03/31 05:02:42;;;;;;;24.08;14.10;;;10.60;52.20;;;;;;5041461;28;20519;-44
2022/03/31 05:05:12;;;;;;;24.23;13.27;;;10.60;52.20;;;;;;5043633;28;20056;-43
2022/03/31 05:07:41;;;;;;;23.98;13.75;;;10.60;52.20;;;;;;5042398;28;20060;-43
2022/03/31 05:10:09;;;;;;;22.35;13.13;;;10.50;52.20;;;;;;5045264;28;20056;-45
2022/03/31 05:12:37;;;;;;;21.75;13.15;;;10.50;52.20;;;;;;5044376;28;20553;-43
2022/03/31 05:15:06;;;;;;;21.58;13.50;;;10.50;52.20;;;;;;5041444;28;20095;-44
2022/03/31 05:17:34;;;;;;;22.70;13.02;;;10.50;52.20;;;;;;5044289;28;20060;-44
2022/03/31 05:20:05;;;;;;;23.42;13.48;;;10.50;52.20;;;;;;5045146;28;20060;-47
2022/03/31 05:22:33;;;;;;;23.35;14.02;;;10.50;52.20;;;;;;5043575;28;20048;-44
2022/03/31 05:25:02;;;;;;;28.77;15.95;;;10.50;52.10;;;;;;5038869;28;20578;-43
2022/03/31 05:27:30;;;;;;;39.50;19.73;;;10.50;52.10;;;;;;5039650;28;20492;-44
2022/03/31 05:29:58;;;;;;;42.95;22.63;;;10.40;52.00;;;;;;5040163;28;20053;-44
2022/03/31 05:32:25;;;;;;;30.60;17.42;;;10.40;52.10;;;;;;5042501;28;20072;-44
2022/03/31 05:34:53;;;;;;;24.88;15.88;;;10.40;52.20;;;;;;5042184;28;20424;-45
2022/03/31 05:37:21;;;;;;;27.58;15.88;;;10.40;52.30;;;;;;5041897;28;20067;-48
2022/03/31 05:39:48;;;;;;;24.88;15.10;;;10.40;52.40;;;;;;5044384;28;20053;-44
2022/03/31 05:42:17;;;;;;;23.73;14.32;;;10.30;52.40;;;;;;5041258;28;20417;-44
2022/03/31 05:44:45;;;;;;;21.02;13.60;;;10.30;52.40;;;;;;5039207;28;20060;-44
2022/03/31 05:47:12;;;;;;;23.60;13.45;;;10.30;52.30;;;;;;5040689;28;20049;-48
2022/03/31 05:49:40;;;;;;;23.00;12.60;;;10.30;52.40;;;;;;5043762;28;20060;-47
2022/03/31 05:52:08;;;;;;;21.58;13.80;;;10.30;52.30;;;;;;5042306;28;20056;-47
2022/03/31 05:54:36;;;;;;;24.75;14.20;;;10.20;52.40;;;;;;5040642;28;20056;-44
2022/03/31 05:57:04;;;;;;;25.00;14.00;;;10.20;52.40;;;;;;5042617;28;20056;-44
2022/03/31 05:59:33;;;;;;;41.03;21.15;;;10.20;52.50;;;;;;5044106;28;20065;-44
2022/03/31 06:02:01;;;;;;;53.10;25.80;;;10.20;52.50;;;;;;5041982;28;20049;-44
2022/03/31 06:04:29;;;;;;;31.88;18.20;;;10.20;52.70;;;;;;5042672;28;20516;-44
2022/03/31 06:06:56;;;;;;;29.58;16.88;;;10.20;52.50;;;;;;5042799;28;20049;-44
2022/03/31 06:09:23;;;;;;;30.75;17.88;;;10.20;52.50;;;;;;5044323;28;20057;-44
2022/03/31 06:11:51;;;;;;;25.88;15.50;;;10.20;52.50;;;;;;5042628;28;20484;-43
2022/03/31 06:14:18;;;;;;;30.63;16.52;;;10.20;52.40;;;;;;5044044;28;20064;-43
2022/03/31 06:16:49;;;;;;;25.05;15.65;;;10.20;52.50;;;;;;5042406;28;20425;-43
2022/03/31 06:19:17;;;;;;;26.05;15.27;;;10.20;52.50;;;;;;5043417;28;20061;-43
2022/03/31 06:21:45;;;;;;;30.33;15.95;;;10.20;52.50;;;;;;5042942;28;20056;-43
2022/03/31 06:24:13;;;;;;;27.17;15.90;;;10.10;52.50;;;;;;5041602;28;20057;-43
2022/03/31 06:26:40;;;;;;;25.38;15.30;;;10.10;52.50;;;;;;5039020;28;20056;-43
2022/03/31 06:29:09;;;;;;;28.35;16.15;;;10.10;52.50;;;;;;5044036;28;20404;-43
2022/03/31 06:31:38;;;;;;;28.33;15.30;;;10.10;52.60;;;;;;5041699;28;20060;-44
2022/03/31 06:34:07;;;;;;;29.30;14.93;;;10.10;52.60;;;;;;5043316;28;20049;-43
2022/03/31 06:36:35;;;;;;;27.63;15.77;;;10.10;52.50;;;;;;5040928;28;20048;-43
2022/03/31 06:39:03;;;;;;;26.40;15.27;;;10.10;52.50;;;;;;5042336;28;20489;-43
2022/03/31 06:41:31;;;;;;;31.00;15.55;;;10.10;52.50;;;;;;5040837;28;20511;-44
2022/03/31 06:43:59;;;;;;;29.88;16.88;;;10.10;52.60;;;;;;5041242;28;20405;-45
2022/03/31 06:46:27;;;;;;;29.48;15.60;;;10.00;52.70;;;;;;5039314;28;20071;-44
2022/03/31 06:48:54;;;;;;;35.08;17.70;;;10.00;52.70;;;;;;5039473;28;20519;-43
2022/03/31 06:51:23;;;;;;;33.20;17.90;;;10.00;52.80;;;;;;5039563;28;20061;-43
2022/03/31 06:53:51;;;;;;;28.98;17.15;;;10.10;53.00;;;;;;5035485;28;20049;-43
2022/03/31 06:56:18;;;;;;;27.10;16.63;;;10.10;53.10;;;;;;5038217;28;20053;-43
2022/03/31 06:58:46;;;;;;;29.27;17.38;;;10.00;53.10;;;;;;5040949;28;20063;-43
2022/03/31 07:01:14;;;;;;;34.65;18.27;;;10.00;53.10;;;;;;5041292;28;20530;-43
2022/03/31 07:03:42;;;;;;;30.98;16.77;;;10.00;53.10;;;;;;5042028;28;20049;-46
2022/03/31 07:06:10;;;;;;;33.92;18.42;;;10.00;53.10;;;;;;5041419;28;20061;-43
2022/03/31 07:08:38;;;;;;;46.33;23.05;;;10.00;53.10;;;;;;5040960;28;20068;-43
2022/03/31 07:11:07;;;;;;;34.90;18.55;;;10.00;53.20;;;;;;5040254;28;20378;-44
2022/03/31 07:13:35;;;;;;;35.22;18.95;;;10.00;53.20;;;;;;5042620;28;20059;-43
2022/03/31 07:16:02;;;;;;;32.03;17.35;;;9.90;53.20;;;;;;5040994;28;20195;-46
2022/03/31 07:18:30;;;;;;;40.05;17.58;;;9.90;53.30;;;;;;5038679;28;20045;-48
2022/03/31 07:20:58;;;;;;;34.13;18.88;;;9.90;53.10;;;;;;5037742;28;20492;-43
2022/03/31 07:23:26;;;;;;;30.05;17.30;;;9.90;53.10;;;;;;5041702;28;20424;-44
2022/03/31 07:25:56;;;;;;;33.72;18.35;;;9.90;53.10;;;;;;5041852;28;20055;-43
2022/03/31 07:28:25;;;;;;;31.25;17.35;;;9.80;53.20;;;;;;5041952;28;20048;-43
2022/03/31 07:30:54;;;;;;;34.55;17.25;;;9.80;53.10;;;;;;5042085;28;20068;-44
2022/03/31 07:33:22;;;;;;;29.70;17.20;;;9.80;53.10;;;;;;5042509;28;20401;-43
2022/03/31 07:35:50;;;;;;;30.52;15.65;;;9.80;53.10;;;;;;5041909;28;20053;-43
2022/03/31 07:38:18;;;;;;;26.33;14.98;;;9.80;53.10;;;;;;5040658;28;20060;-46
2022/03/31 07:40:46;;;;;;;30.83;16.95;;;9.80;53.00;;;;;;5038245;28;20071;-44
2022/03/31 07:43:15;;;;;;;28.70;16.80;;;9.90;52.90;;;;;;5042103;28;20067;-49
2022/03/31 07:45:42;;;;;;;27.33;15.05;;;9.80;52.90;;;;;;5042102;28;21029;-46
2022/03/31 07:48:13;;;;;;;31.83;14.85;;;9.80;52.80;;;;;;5042168;28;20056;-43
2022/03/31 07:50:41;;;;;;;31.02;15.80;;;9.80;52.70;;;;;;5041192;28;20075;-45
2022/03/31 07:53:10;;;;;;;26.63;15.20;;;9.80;52.70;;;;;;5041951;28;20402;-44
2022/03/31 07:55:38;;;;;;;24.50;14.25;;;9.80;52.60;;;;;;5040740;28;20052;-43
2022/03/31 07:58:05;;;;;;;24.90;14.07;;;9.90;52.60;;;;;;5039002;28;20057;-47
2022/03/31 08:00:34;;;;;;;25.08;14.63;;;9.80;52.60;;;;;;5042196;28;20527;-44
2022/03/31 08:03:02;;;;;;;25.42;14.65;;;9.80;52.60;;;;;;5039329;28;20061;-43
2022/03/31 08:05:30;;;;;;;27.45;15.93;;;9.80;52.50;;;;;;5037924;28;20049;-43
2022/03/31 08:07:58;;;;;;;26.60;14.15;;;9.90;52.60;;;;;;5040313;28;20058;-44
2022/03/31 08:10:26;;;;;;;25.90;14.45;;;9.90;52.60;;;;;;5037180;28;20052;-43
2022/03/31 08:12:54;;;;;;;27.67;14.38;;;9.90;52.60;;;;;;5038825;28;20500;-43
2022/03/31 08:15:23;;;;;;;27.83;15.23;;;9.90;52.50;;;;;;5039673;28;20405;-47
2022/03/31 08:17:52;;;;;;;25.30;14.27;;;9.90;52.50;;;;;;5041783;28;20520;-43
2022/03/31 08:20:20;;;;;;;24.98;14.57;;;9.90;52.50;;;;;;5039988;28;20060;-48
2022/03/31 08:22:48;;;;;;;24.48;14.27;;;9.90;52.60;;;;;;5042201;28;20053;-44
2022/03/31 08:25:17;;;;;;;30.20;14.70;;;9.90;52.70;;;;;;5041415;28;20057;-43
2022/03/31 08:27:46;;;;;;;24.05;12.98;;;10.00;52.80;;;;;;5044834;28;20060;-43
2022/03/31 08:30:16;;;;;;;30.40;14.65;;;10.00;52.60;;;;;;5044718;28;20056;-46
2022/03/31 08:32:46;;;;;;;28.23;15.23;;;10.00;52.60;;;;;;5042341;28;20061;-46
2022/03/31 08:35:17;;;;;;;27.98;14.13;;;10.00;52.60;;;;;;5042075;28;20080;-46
2022/03/31 08:37:44;;;;;;;29.85;16.05;;;10.00;52.90;;;;;;5044080;28;20045;-44
2022/03/31 08:40:13;;;;;;;32.22;15.45;;;10.10;53.10;;;;;;5043163;28;20045;-45
2022/03/31 08:42:42;;;;;;;30.52;16.17;;;10.10;52.90;;;;;;5043472;28;20103;-43
2022/03/31 08:45:14;;;;;;;26.40;15.68;;;10.10;52.70;;;;;;5038461;28;20060;-45
2022/03/31 08:47:44;;;;;;;33.17;16.60;;;10.10;52.80;;;;;;5044490;28;20515;-44
2022/03/31 08:50:12;;;;;;;32.22;16.70;;;10.10;52.70;;;;;;5043329;28;20063;-44
2022/03/31 08:52:41;;;;;;;28.88;16.05;;;10.20;52.60;;;;;;5043176;28;20057;-44
2022/03/31 08:55:12;;;;;;;29.33;16.90;;;10.20;52.50;;;;;;5040593;28;20056;-44
2022/03/31 08:57:44;;;;;;;29.20;16.50;;;10.20;52.20;;;;;;5043060;28;20060;-44
2022/03/31 09:00:14;;;;;;;27.67;15.35;;;10.30;52.20;;;;;;5041682;28;20057;-46
2022/03/31 09:02:52;;;;;;;29.08;16.23;;;10.30;52.10;;;;;;5042649;28;20052;-43
2022/03/31 09:05:19;;;;;;;27.60;16.27;;;10.40;52.10;;;;;;5044351;28;20065;-43
2022/03/31 09:08:00;;;;;;;29.10;16.83;;;10.40;52.00;;;;;;5043366;28;20515;-43
2022/03/31 09:10:32;;;;;;;27.23;16.55;;;10.40;51.90;;;;;;5025727;28;20080;-43
2022/03/31 09:13:03;;;;;;;28.08;17.13;;;10.40;51.90;;;;;;5044144;28;20048;-44
2022/03/31 09:15:33;;;;;;;29.40;16.38;;;10.40;51.90;;;;;;5041889;28;20053;-43
2022/03/31 09:18:01;;;;;;;31.40;17.60;;;10.40;51.90;;;;;;5035509;28;20049;-44
2022/03/31 09:20:43;;;;;;;31.05;17.83;;;10.40;52.00;;;;;;5042321;28;20053;-46
2022/03/31 09:23:17;;;;;;;27.75;16.55;;;10.40;52.10;;;;;;5038917;28;20064;-44
2022/03/31 09:25:45;;;;;;;30.67;16.50;;;10.50;52.20;;;;;;5042211;28;20053;-43
2022/03/31 09:28:18;;;;;;;31.30;18.67;;;10.50;52.20;;;;;;5038955;28;20049;-44
2022/03/31 09:30:48;;;;;;;36.88;20.58;;;10.50;52.30;;;;;;5039898;28;20065;-44
2022/03/31 09:33:32;;;;;;;29.75;17.20;;;10.50;52.20;;;;;;5042376;28;20515;-44
2022/03/31 09:36:04;;;;;;;32.90;17.90;;;10.50;52.20;;;;;;5040802;28;20049;-43
2022/03/31 09:38:35;;;;;;;33.33;18.40;;;10.60;52.10;;;;;;5043417;28;20053;-45
2022/03/31 09:41:04;;;;;;;30.05;17.70;;;10.60;51.90;;;;;;5039938;28;20052;-44
2022/03/31 09:43:41;;;;;;;30.38;17.50;;;10.60;51.90;;;;;;5042532;28;20048;-43
2022/03/31 09:46:19;;;;;;;30.13;18.40;;;10.70;51.90;;;;;;5039191;28;20059;-44
2022/03/31 09:48:48;;;;;;;31.75;18.08;;;10.70;51.80;;;;;;5043231;28;20416;-44
2022/03/31 09:51:16;;;;;;;32.20;17.33;;;10.80;51.80;;;;;;5040881;28;20065;-44
2022/03/31 09:53:44;;;;;;;32.40;17.42;;;10.80;51.70;;;;;;5034958;28;20045;-43
2022/03/31 09:56:13;;;;;;;28.13;16.90;;;10.90;51.70;;;;;;5042386;28;20049;-45
2022/03/31 09:58:46;;;;;;;32.92;16.75;;;10.90;51.50;;;;;;5043193;28;20049;-44
2022/03/31 10:01:15;;;;;;;29.90;17.17;;;11.00;51.60;;;;;;5040457;28;20049;-44
2022/03/31 10:03:42;;;;;;;32.10;18.27;;;11.00;51.50;;;;;;5041059;28;20083;-44
2022/03/31 10:06:10;;;;;;;28.98;17.20;;;11.10;51.60;;;;;;5043633;28;20057;-45
2022/03/31 10:08:42;;;;;;;30.55;18.08;;;11.10;51.50;;;;;;5042255;28;20140;-46
2022/03/31 10:11:12;;;;;;;30.38;17.05;;;11.10;51.50;;;;;;5041711;28;20060;-45
2022/03/31 10:13:43;;;;;;;34.20;19.60;;;11.20;51.50;;;;;;5041897;28;21264;-44
2022/03/31 10:16:16;;;;;;;29.20;17.45;;;11.20;51.70;;;;;;5040705;28;20063;-44
2022/03/31 10:18:47;;;;;;;29.08;17.27;;;11.30;51.80;;;;;;5041355;28;20056;-48
2022/03/31 10:21:27;;;;;;;31.45;18.10;;;11.30;51.50;;;;;;5042422;28;20053;-44
2022/03/31 10:26:41;;;;;;;25.17;16.08;;;11.40;51.20;;;;;;5046956;28;20052;-44
2022/03/31 10:29:13;;;;;;;27.77;16.58;;;11.40;51.20;;;;;;5040271;28;20566;-44
2022/03/31 10:31:42;;;;;;;27.75;16.48;;;11.50;51.20;;;;;;5038473;28;20052;-45
2022/03/31 10:34:13;;;;;;;28.08;15.85;;;11.50;51.10;;;;;;5039875;28;20059;-45
2022/03/31 10:36:45;;;;;;;28.85;17.35;;;11.50;51.00;;;;;;5037569;28;20057;-44
2022/03/31 10:39:18;;;;;;;26.17;17.67;;;11.60;51.50;;;;;;5039082;28;21173;-46
2022/03/31 10:41:47;;;;;;;28.20;16.30;;;11.60;51.00;;;;;;5040262;28;20049;-44
2022/03/31 10:44:19;;;;;;;26.98;16.10;;;11.70;51.00;;;;;;5039729;28;20052;-44
2022/03/31 10:46:48;;;;;;;27.50;16.75;;;11.70;51.00;;;;;;5041734;28;20052;-44
2022/03/31 10:49:20;;;;;;;29.30;16.95;;;11.70;51.00;;;;;;5041299;28;20068;-46
2022/03/31 10:51:48;;;;;;;28.08;17.05;;;11.80;50.90;;;;;;5041899;28;20068;-45
2022/03/31 10:54:26;;;;;;;26.75;16.67;;;11.80;51.00;;;;;;5038957;28;20053;-44
2022/03/31 10:57:06;;;;;;;25.55;16.50;;;11.80;51.10;;;;;;5037272;28;20060;-44
2022/03/31 10:59:35;;;;;;;27.50;17.02;;;11.80;50.90;;;;;;5040926;28;20044;-44
2022/03/31 11:02:09;;;;;;;29.00;16.83;;;11.90;50.70;;;;;;5042170;28;20057;-44
2022/03/31 11:04:46;;;;;;;31.08;18.98;;;11.90;50.70;;;;;;5041606;28;20064;-44
2022/03/31 11:07:19;;;;;;;26.33;16.77;;;11.80;50.90;;;;;;5041368;28;20063;-45
2022/03/31 11:09:46;;;;;;;32.45;18.83;;;11.80;50.60;;;;;;5040458;28;20056;-43
2022/03/31 11:12:29;;;;;;;28.20;17.33;;;11.80;50.80;;;;;;5042059;28;20044;-44
2022/03/31 11:14:59;;;;;;;28.13;17.50;;;11.70;51.30;;;;;;5039463;28;20060;-44
2022/03/31 11:17:27;;;;;;;30.85;17.08;;;11.70;51.50;;;;;;5041948;28;20093;-44
2022/03/31 11:19:55;;;;;;;26.52;16.38;;;11.70;51.70;;;;;;5042209;28;20378;-44
2022/03/31 11:22:26;;;;;;;30.13;18.02;;;11.70;51.80;;;;;;5042833;28;20052;-43
2022/03/31 11:24:56;;;;;;;30.80;18.48;;;11.70;51.30;;;;;;5039726;28;20151;-45
2022/03/31 11:27:38;;;;;;;29.58;18.23;;;11.70;51.00;;;;;;5041509;28;20061;-43
2022/03/31 11:30:11;;;;;;;33.95;18.88;;;11.70;50.60;;;;;;5042336;28;20064;-47
2022/03/31 11:32:41;;;;;;;29.52;17.83;;;11.60;50.60;;;;;;5043581;28;20061;-43
2022/03/31 11:35:13;;;;;;;29.33;18.30;;;11.50;50.50;;;;;;5038254;28;20060;-44
2022/03/31 11:37:47;;;;;;;29.30;17.80;;;11.50;50.90;;;;;;5040813;28;20049;-43
2022/03/31 11:40:20;;;;;;;27.33;16.42;;;11.40;51.20;;;;;;5039903;28;20059;-43
2022/03/31 11:42:51;;;;;;;24.25;15.63;;;11.40;51.20;;;;;;5041505;28;20063;-43
2022/03/31 11:45:27;;;;;;;30.67;15.85;;;11.30;51.30;;;;;;5041323;28;20484;-43
2022/03/31 11:47:56;;;;;;;27.50;17.45;;;11.30;51.60;;;;;;5042443;28;20083;-43
2022/03/31 11:50:25;;;;;;;25.15;15.75;;;11.40;51.80;;;;;;5041988;28;20064;-43
2022/03/31 11:52:53;;;;;;;27.92;16.35;;;11.40;52.00;;;;;;5039044;28;20057;-43
2022/03/31 11:55:22;;;;;;;26.95;16.65;;;11.50;52.10;;;;;;5038445;28;20053;-44
2022/03/31 11:57:58;;;;;;;25.60;16.00;;;11.50;52.30;;;;;;5040110;28;20060;-43
2022/03/31 12:00:27;;;;;;;31.08;15.77;;;11.60;52.20;;;;;;5042287;28;20067;-44
2022/03/31 12:03:00;;;;;;;25.65;15.80;;;11.70;52.20;;;;;;5040920;28;20067;-43
2022/03/31 12:05:27;;;;;;;25.75;15.77;;;11.90;52.00;;;;;;5040451;28;20432;-45
2022/03/31 12:07:55;;;;;;;26.52;15.98;;;11.90;51.70;;;;;;5042146;28;20413;-43
2022/03/31 12:10:23;;;;;;;25.80;15.85;;;12.00;51.50;;;;;;5040103;28;20053;-43
2022/03/31 12:12:52;;;;;;;27.00;15.75;;;12.10;51.30;;;;;;5041435;28;20049;-44
2022/03/31 12:15:23;;;;;;;25.08;14.98;;;12.20;51.00;;;;;;5038523;28;20060;-44
2022/03/31 12:18:03;;;;;;;23.10;14.70;;;12.30;50.90;;;;;;5040093;28;20425;-46
2022/03/31 12:20:32;;;;;;;25.70;14.95;;;12.40;51.10;;;;;;5041945;28;20049;-44
2022/03/31 12:22:59;;;;;;;29.10;17.58;;;12.40;51.00;;;;;;5041986;28;20067;-46
2022/03/31 12:25:31;;;;;;;24.17;14.90;;;12.40;50.50;;;;;;5038963;28;20424;-43
2022/03/31 12:28:03;;;;;;;24.38;14.13;;;12.50;50.50;;;;;;5041320;28;20064;-44
2022/03/31 12:30:43;;;;;;;27.00;15.38;;;12.50;50.60;;;;;;5042076;28;20400;-43
2022/03/31 12:33:22;;;;;;;29.50;16.55;;;12.40;49.90;;;;;;5042016;28;20053;-45
2022/03/31 12:35:57;;;;;;;26.25;16.38;;;12.40;49.30;;;;;;5037296;28;20065;-44
2022/03/31 12:38:36;;;;;;;31.33;17.42;;;12.30;49.60;;;;;;5040705;28;20064;-45
2022/03/31 12:41:07;;;;;;;29.67;18.05;;;12.10;49.70;;;;;;5039529;28;20497;-45
2022/03/31 12:43:35;;;;;;;26.85;17.67;;;12.00;49.80;;;;;;5041118;28;20057;-45